sensor_id;sensor_type;location;lat;lon;timestamp;temperature;humidity
43858;DHT22;29507;51.284;5.758;2022-09-09T00:14:54;13.40;99.90
43858;DHT22;29507;51.284;5.758;2022-09-09T00:19:59;13.40;99.90
43858;DHT22;29507;51.284;5.758;2022-09-09T00:22:28;13.30;99.90
43858;DHT22;29507;51.284;5.758;2022-09-09T00:27:45;13.20;99.90
43858;DHT22;29507;51.284;5.758;2022-09-09T00:32:41;13.20;99.90
43858;DHT22;29507;51.284;5.758;2022-09-09T00:35:24;13.20;99.90
43858;DHT22;29507;51.284;5.758;2022-09-09T00:37:53;13.20;99.90
43858;DHT22;29507;51.284;5.758;2022-09-09T00:40:34;13.30;99.90
43858;DHT22;29507;51.284;5.758;2022-09-09T00:48:38;13.10;99.90
43858;DHT22;29507;51.284;5.758;2022-09-09T00:51:15;13.00;99.90
43858;DHT22;29507;51.284;5.758;2022-09-09T00:54:05;13.10;99.90
43858;DHT22;29507;51.284;5.758;2022-09-09T00:56:47;13.10;99.90
43858;DHT22;29507;51.284;5.758;2022-09-09T00:59:20;13.10;99.90
43858;DHT22;29507;51.284;5.758;2022-09-09T01:01:48;13.00;99.90
43858;DHT22;29507;51.284;5.758;2022-09-09T01:04:20;13.00;99.90
43858;DHT22;29507;51.284;5.758;2022-09-09T01:06:50;13.00;99.90
43858;DHT22;29507;51.284;5.758;2022-09-09T01:09:44;13.00;99.90
43858;DHT22;29507;51.284;5.758;2022-09-09T01:12:23;13.00;99.90
43858;DHT22;29507;51.284;5.758;2022-09-09T01:14:52;13.00;99.90
43858;DHT22;29507;51.284;5.758;2022-09-09T01:20:37;13.00;99.90
43858;DHT22;29507;51.284;5.758;2022-09-09T01:23:32;13.00;99.90
43858;DHT22;29507;51.284;5.758;2022-09-09T01:28:51;12.90;99.90
43858;DHT22;29507;51.284;5.758;2022-09-09T01:31:26;12.80;99.90
43858;DHT22;29507;51.284;5.758;2022-09-09T01:33:53;12.90;99.90
43858;DHT22;29507;51.284;5.758;2022-09-09T01:39:11;12.80;99.90
43858;DHT22;29507;51.284;5.758;2022-09-09T01:41:38;12.90;99.90
43858;DHT22;29507;51.284;5.758;2022-09-09T01:44:04;12.90;99.90
43858;DHT22;29507;51.284;5.758;2022-09-09T01:46:30;13.00;99.90
43858;DHT22;29507;51.284;5.758;2022-09-09T01:48:56;13.00;99.90
43858;DHT22;29507;51.284;5.758;2022-09-09T01:51:22;13.00;99.90
43858;DHT22;29507;51.284;5.758;2022-09-09T01:53:48;13.00;99.90
43858;DHT22;29507;51.284;5.758;2022-09-09T02:06:58;13.10;99.90
43858;DHT22;29507;51.284;5.758;2022-09-09T02:09:26;13.10;99.90
43858;DHT22;29507;51.284;5.758;2022-09-09T02:12:03;13.10;99.90
43858;DHT22;29507;51.284;5.758;2022-09-09T02:14:37;13.10;99.90
43858;DHT22;29507;51.284;5.758;2022-09-09T02:17:09;13.10;99.90
43858;DHT22;29507;51.284;5.758;2022-09-09T02:19:52;13.10;99.90
43858;DHT22;29507;51.284;5.758;2022-09-09T02:22:21;13.10;99.90
43858;DHT22;29507;51.284;5.758;2022-09-09T02:24:49;13.10;99.90
43858;DHT22;29507;51.284;5.758;2022-09-09T02:27:17;13.20;99.90
43858;DHT22;29507;51.284;5.758;2022-09-09T02:29:43;13.10;99.90
43858;DHT22;29507;51.284;5.758;2022-09-09T02:32:16;13.10;99.90
43858;DHT22;29507;51.284;5.758;2022-09-09T02:34:48;13.20;99.90
43858;DHT22;29507;51.284;5.758;2022-09-09T02:37:17;13.10;99.90
43858;DHT22;29507;51.284;5.758;2022-09-09T02:39:44;13.20;99.90
43858;DHT22;29507;51.284;5.758;2022-09-09T02:42:09;13.20;99.90
43858;DHT22;29507;51.284;5.758;2022-09-09T02:44:35;13.20;99.90
43858;DHT22;29507;51.284;5.758;2022-09-09T02:52:15;13.20;99.90
43858;DHT22;29507;51.284;5.758;2022-09-09T02:54:43;13.10;99.90
43858;DHT22;29507;51.284;5.758;2022-09-09T02:57:12;13.10;99.90
43858;DHT22;29507;51.284;5.758;2022-09-09T02:59:39;13.10;99.90
43858;DHT22;29507;51.284;5.758;2022-09-09T03:02:05;13.00;99.90
43858;DHT22;29507;51.284;5.758;2022-09-09T03:04:31;13.10;99.90
43858;DHT22;29507;51.284;5.758;2022-09-09T03:06:58;13.10;99.90
43858;DHT22;29507;51.284;5.758;2022-09-09T03:09:24;13.10;99.90
43858;DHT22;29507;51.284;5.758;2022-09-09T03:11:51;13.10;99.90
43858;DHT22;29507;51.284;5.758;2022-09-09T03:14:17;13.20;99.90
43858;DHT22;29507;51.284;5.758;2022-09-09T03:16:47;13.20;99.90
43858;DHT22;29507;51.284;5.758;2022-09-09T03:19:12;13.30;99.90
43858;DHT22;29507;51.284;5.758;2022-09-09T03:21:38;13.20;99.90
43858;DHT22;29507;51.284;5.758;2022-09-09T03:24:04;13.20;99.90
43858;DHT22;29507;51.284;5.758;2022-09-09T03:26:30;13.30;99.90
43858;DHT22;29507;51.284;5.758;2022-09-09T03:28:57;13.20;99.90
43858;DHT22;29507;51.284;5.758;2022-09-09T03:31:22;13.30;99.90
43858;DHT22;29507;51.284;5.758;2022-09-09T03:33:48;13.20;99.90
43858;DHT22;29507;51.284;5.758;2022-09-09T03:36:14;13.20;99.90
43858;DHT22;29507;51.284;5.758;2022-09-09T03:38:40;13.20;99.90
43858;DHT22;29507;51.284;5.758;2022-09-09T03:41:06;13.30;99.90
43858;DHT22;29507;51.284;5.758;2022-09-09T03:43:33;13.30;99.90
43858;DHT22;29507;51.284;5.758;2022-09-09T03:45:59;13.40;99.90
43858;DHT22;29507;51.284;5.758;2022-09-09T03:48:25;13.40;99.90
43858;DHT22;29507;51.284;5.758;2022-09-09T03:50:53;13.40;99.90
43858;DHT22;29507;51.284;5.758;2022-09-09T03:53:20;13.40;99.90
43858;DHT22;29507;51.284;5.758;2022-09-09T03:55:48;13.50;99.90
43858;DHT22;29507;51.284;5.758;2022-09-09T03:58:15;13.50;99.90
43858;DHT22;29507;51.284;5.758;2022-09-09T04:00:41;13.50;99.90
43858;DHT22;29507;51.284;5.758;2022-09-09T04:03:11;13.50;99.90
43858;DHT22;29507;51.284;5.758;2022-09-09T04:05:39;13.50;99.90
43858;DHT22;29507;51.284;5.758;2022-09-09T04:08:07;13.50;99.90
43858;DHT22;29507;51.284;5.758;2022-09-09T04:10:34;13.50;99.90
43858;DHT22;29507;51.284;5.758;2022-09-09T04:13:01;13.60;99.90
43858;DHT22;29507;51.284;5.758;2022-09-09T04:15:27;13.70;99.90
43858;DHT22;29507;51.284;5.758;2022-09-09T04:17:53;13.70;99.90
43858;DHT22;29507;51.284;5.758;2022-09-09T04:20:19;13.80;99.90
43858;DHT22;29507;51.284;5.758;2022-09-09T04:22:44;13.80;99.90
43858;DHT22;29507;51.284;5.758;2022-09-09T04:25:10;13.80;99.90
43858;DHT22;29507;51.284;5.758;2022-09-09T04:27:35;13.80;99.90
43858;DHT22;29507;51.284;5.758;2022-09-09T04:30:01;13.90;99.90
43858;DHT22;29507;51.284;5.758;2022-09-09T04:32:26;13.90;99.90
43858;DHT22;29507;51.284;5.758;2022-09-09T04:34:52;13.90;99.90
43858;DHT22;29507;51.284;5.758;2022-09-09T04:37:18;13.90;99.90
43858;DHT22;29507;51.284;5.758;2022-09-09T04:39:44;13.90;99.90
43858;DHT22;29507;51.284;5.758;2022-09-09T04:42:10;13.90;99.90
43858;DHT22;29507;51.284;5.758;2022-09-09T04:44:38;14.00;99.90
43858;DHT22;29507;51.284;5.758;2022-09-09T04:47:04;14.00;99.90
43858;DHT22;29507;51.284;5.758;2022-09-09T04:49:30;14.00;99.90
43858;DHT22;29507;51.284;5.758;2022-09-09T04:51:56;14.00;99.90
43858;DHT22;29507;51.284;5.758;2022-09-09T04:54:22;13.90;99.90
43858;DHT22;29507;51.284;5.758;2022-09-09T04:56:50;14.00;99.90
43858;DHT22;29507;51.284;5.758;2022-09-09T04:59:16;13.90;99.90
43858;DHT22;29507;51.284;5.758;2022-09-09T05:01:41;13.90;99.90
43858;DHT22;29507;51.284;5.758;2022-09-09T05:04:07;13.80;99.90
43858;DHT22;29507;51.284;5.758;2022-09-09T05:06:34;13.80;99.90
43858;DHT22;29507;51.284;5.758;2022-09-09T05:09:01;13.70;99.90
43858;DHT22;29507;51.284;5.758;2022-09-09T05:11:29;13.60;99.90
43858;DHT22;29507;51.284;5.758;2022-09-09T05:13:55;13.50;99.90
43858;DHT22;29507;51.284;5.758;2022-09-09T05:16:22;13.60;99.90
43858;DHT22;29507;51.284;5.758;2022-09-09T05:18:48;13.60;99.90
43858;DHT22;29507;51.284;5.758;2022-09-09T05:21:18;13.60;99.90
43858;DHT22;29507;51.284;5.758;2022-09-09T05:23:45;13.60;99.90
43858;DHT22;29507;51.284;5.758;2022-09-09T05:26:16;13.70;99.90
43858;DHT22;29507;51.284;5.758;2022-09-09T05:28:42;13.70;99.90
43858;DHT22;29507;51.284;5.758;2022-09-09T05:31:09;13.80;99.90
43858;DHT22;29507;51.284;5.758;2022-09-09T05:33:38;13.80;99.90
43858;DHT22;29507;51.284;5.758;2022-09-09T05:36:08;13.80;99.90
43858;DHT22;29507;51.284;5.758;2022-09-09T05:38:34;13.80;99.90
43858;DHT22;29507;51.284;5.758;2022-09-09T05:41:01;13.80;99.90
43858;DHT22;29507;51.284;5.758;2022-09-09T05:43:28;13.90;99.90
43858;DHT22;29507;51.284;5.758;2022-09-09T05:48:41;14.00;99.90
43858;DHT22;29507;51.284;5.758;2022-09-09T05:51:13;14.10;99.90
43858;DHT22;29507;51.284;5.758;2022-09-09T05:53:41;14.10;99.90
43858;DHT22;29507;51.284;5.758;2022-09-09T05:56:12;14.20;99.90
43858;DHT22;29507;51.284;5.758;2022-09-09T05:58:41;14.30;99.90
43858;DHT22;29507;51.284;5.758;2022-09-09T06:01:16;14.30;99.90
43858;DHT22;29507;51.284;5.758;2022-09-09T06:03:43;14.40;99.90
43858;DHT22;29507;51.284;5.758;2022-09-09T06:06:11;14.50;99.90
43858;DHT22;29507;51.284;5.758;2022-09-09T06:08:39;14.50;99.90
43858;DHT22;29507;51.284;5.758;2022-09-09T06:11:07;14.60;99.90
43858;DHT22;29507;51.284;5.758;2022-09-09T06:13:33;14.70;99.90
43858;DHT22;29507;51.284;5.758;2022-09-09T06:15:59;14.80;99.90
43858;DHT22;29507;51.284;5.758;2022-09-09T06:18:25;14.80;99.90
43858;DHT22;29507;51.284;5.758;2022-09-09T06:20:58;14.90;99.90
43858;DHT22;29507;51.284;5.758;2022-09-09T06:23:25;14.90;99.90
43858;DHT22;29507;51.284;5.758;2022-09-09T06:25:51;15.00;99.90
43858;DHT22;29507;51.284;5.758;2022-09-09T06:28:17;15.10;99.90
43858;DHT22;29507;51.284;5.758;2022-09-09T06:30:43;15.10;99.90
43858;DHT22;29507;51.284;5.758;2022-09-09T06:33:10;15.20;99.90
43858;DHT22;29507;51.284;5.758;2022-09-09T06:35:35;15.20;99.90
43858;DHT22;29507;51.284;5.758;2022-09-09T06:38:01;15.30;99.90
43858;DHT22;29507;51.284;5.758;2022-09-09T06:40:27;15.40;99.90
43858;DHT22;29507;51.284;5.758;2022-09-09T06:42:52;16.10;99.90
43858;DHT22;29507;51.284;5.758;2022-09-09T06:45:18;16.90;99.90
43858;DHT22;29507;51.284;5.758;2022-09-09T06:47:44;17.40;99.90
43858;DHT22;29507;51.284;5.758;2022-09-09T06:50:10;17.40;99.90
43858;DHT22;29507;51.284;5.758;2022-09-09T06:52:36;17.00;99.90
43858;DHT22;29507;51.284;5.758;2022-09-09T06:55:03;16.80;99.90
43858;DHT22;29507;51.284;5.758;2022-09-09T06:57:29;17.00;99.90
43858;DHT22;29507;51.284;5.758;2022-09-09T06:59:54;17.70;99.90
43858;DHT22;29507;51.284;5.758;2022-09-09T07:02:20;18.40;99.90
43858;DHT22;29507;51.284;5.758;2022-09-09T07:04:46;18.60;99.90
43858;DHT22;29507;51.284;5.758;2022-09-09T07:07:12;18.70;99.90
43858;DHT22;29507;51.284;5.758;2022-09-09T07:09:39;18.70;99.90
43858;DHT22;29507;51.284;5.758;2022-09-09T07:12:05;19.00;99.90
43858;DHT22;29507;51.284;5.758;2022-09-09T07:14:31;19.40;99.90
43858;DHT22;29507;51.284;5.758;2022-09-09T07:16:59;19.10;99.90
43858;DHT22;29507;51.284;5.758;2022-09-09T07:19:25;19.30;99.90
43858;DHT22;29507;51.284;5.758;2022-09-09T07:21:51;19.70;99.90
43858;DHT22;29507;51.284;5.758;2022-09-09T07:24:16;20.00;99.90
43858;DHT22;29507;51.284;5.758;2022-09-09T07:26:42;20.20;99.90
43858;DHT22;29507;51.284;5.758;2022-09-09T07:29:09;20.30;99.90
43858;DHT22;29507;51.284;5.758;2022-09-09T07:31:37;20.40;99.90
43858;DHT22;29507;51.284;5.758;2022-09-09T07:34:04;20.80;99.90
43858;DHT22;29507;51.284;5.758;2022-09-09T07:36:31;21.10;99.90
43858;DHT22;29507;51.284;5.758;2022-09-09T07:39:03;20.90;99.90
43858;DHT22;29507;51.284;5.758;2022-09-09T07:41:35;20.70;99.90
43858;DHT22;29507;51.284;5.758;2022-09-09T07:44:09;20.80;99.90
43858;DHT22;29507;51.284;5.758;2022-09-09T07:46:36;20.70;99.90
43858;DHT22;29507;51.284;5.758;2022-09-09T07:49:04;20.20;99.90
43858;DHT22;29507;51.284;5.758;2022-09-09T07:51:32;19.40;99.90
43858;DHT22;29507;51.284;5.758;2022-09-09T07:54:01;18.90;99.90
43858;DHT22;29507;51.284;5.758;2022-09-09T07:56:28;18.40;99.90
43858;DHT22;29507;51.284;5.758;2022-09-09T07:58:55;18.20;99.90
43858;DHT22;29507;51.284;5.758;2022-09-09T08:01:24;18.00;99.90
43858;DHT22;29507;51.284;5.758;2022-09-09T08:04:10;17.80;99.90
43858;DHT22;29507;51.284;5.758;2022-09-09T08:06:43;17.70;99.90
43858;DHT22;29507;51.284;5.758;2022-09-09T08:09:09;17.80;99.90
43858;DHT22;29507;51.284;5.758;2022-09-09T08:11:36;17.80;99.90
43858;DHT22;29507;51.284;5.758;2022-09-09T08:14:03;17.90;99.90
43858;DHT22;29507;51.284;5.758;2022-09-09T08:16:31;17.90;99.90
43858;DHT22;29507;51.284;5.758;2022-09-09T08:18:58;18.00;99.90
43858;DHT22;29507;51.284;5.758;2022-09-09T08:21:28;18.00;99.90
43858;DHT22;29507;51.284;5.758;2022-09-09T08:23:56;18.20;99.90
43858;DHT22;29507;51.284;5.758;2022-09-09T08:26:27;18.40;99.90
43858;DHT22;29507;51.284;5.758;2022-09-09T08:28:55;18.20;99.90
43858;DHT22;29507;51.284;5.758;2022-09-09T08:31:28;18.10;99.90
43858;DHT22;29507;51.284;5.758;2022-09-09T08:33:55;18.00;99.90
43858;DHT22;29507;51.284;5.758;2022-09-09T08:36:23;17.90;99.90
43858;DHT22;29507;51.284;5.758;2022-09-09T08:38:50;18.00;99.90
43858;DHT22;29507;51.284;5.758;2022-09-09T08:44:14;18.20;99.90
43858;DHT22;29507;51.284;5.758;2022-09-09T08:46:51;18.10;99.90
43858;DHT22;29507;51.284;5.758;2022-09-09T08:55:25;18.00;99.90
43858;DHT22;29507;51.284;5.758;2022-09-09T08:57:58;17.90;99.90
43858;DHT22;29507;51.284;5.758;2022-09-09T09:00:40;17.90;99.90
43858;DHT22;29507;51.284;5.758;2022-09-09T09:03:28;17.90;99.90
43858;DHT22;29507;51.284;5.758;2022-09-09T09:08:54;17.90;99.90
43858;DHT22;29507;51.284;5.758;2022-09-09T09:11:21;17.90;99.90
43858;DHT22;29507;51.284;5.758;2022-09-09T09:16:33;17.80;99.90
43858;DHT22;29507;51.284;5.758;2022-09-09T09:19:00;17.70;99.90
43858;DHT22;29507;51.284;5.758;2022-09-09T09:21:42;17.80;99.90
43858;DHT22;29507;51.284;5.758;2022-09-09T09:24:29;18.00;99.90
43858;DHT22;29507;51.284;5.758;2022-09-09T09:27:00;18.20;99.90
43858;DHT22;29507;51.284;5.758;2022-09-09T09:29:32;18.20;99.90
43858;DHT22;29507;51.284;5.758;2022-09-09T09:32:02;18.30;99.90
43858;DHT22;29507;51.284;5.758;2022-09-09T09:34:28;18.40;99.90
43858;DHT22;29507;51.284;5.758;2022-09-09T09:36:56;18.40;99.90
43858;DHT22;29507;51.284;5.758;2022-09-09T09:41:49;18.30;99.90
43858;DHT22;29507;51.284;5.758;2022-09-09T09:44:32;18.50;99.90
43858;DHT22;29507;51.284;5.758;2022-09-09T09:47:14;18.50;99.90
43858;DHT22;29507;51.284;5.758;2022-09-09T09:49:50;18.30;99.90
43858;DHT22;29507;51.284;5.758;2022-09-09T09:52:23;18.30;99.90
43858;DHT22;29507;51.284;5.758;2022-09-09T09:54:51;18.10;99.90
43858;DHT22;29507;51.284;5.758;2022-09-09T09:57:18;18.10;99.90
43858;DHT22;29507;51.284;5.758;2022-09-09T09:59:45;18.10;99.90
43858;DHT22;29507;51.284;5.758;2022-09-09T10:02:20;17.90;99.90
43858;DHT22;29507;51.284;5.758;2022-09-09T10:04:47;18.00;99.90
43858;DHT22;29507;51.284;5.758;2022-09-09T10:07:20;18.30;99.90
43858;DHT22;29507;51.284;5.758;2022-09-09T10:09:53;18.70;99.90
43858;DHT22;29507;51.284;5.758;2022-09-09T10:15:18;19.00;99.90
43858;DHT22;29507;51.284;5.758;2022-09-09T10:21:01;19.40;99.90
43858;DHT22;29507;51.284;5.758;2022-09-09T10:29:09;19.80;99.90
43858;DHT22;29507;51.284;5.758;2022-09-09T10:31:53;19.70;99.90
43858;DHT22;29507;51.284;5.758;2022-09-09T10:34:50;19.50;99.90
43858;DHT22;29507;51.284;5.758;2022-09-09T10:40:38;18.90;99.90
43858;DHT22;29507;51.284;5.758;2022-09-09T10:56:20;18.70;99.90
43858;DHT22;29507;51.284;5.758;2022-09-09T11:01:24;17.90;99.90
43858;DHT22;29507;51.284;5.758;2022-09-09T11:03:58;17.70;99.90
43858;DHT22;29507;51.284;5.758;2022-09-09T11:06:35;17.40;99.90
43858;DHT22;29507;51.284;5.758;2022-09-09T11:09:03;17.10;99.90
43858;DHT22;29507;51.284;5.758;2022-09-09T11:11:41;16.90;99.90
43858;DHT22;29507;51.284;5.758;2022-09-09T11:14:15;16.80;99.90
43858;DHT22;29507;51.284;5.758;2022-09-09T11:16:50;16.60;99.90
43858;DHT22;29507;51.284;5.758;2022-09-09T11:19:28;16.60;99.90
43858;DHT22;29507;51.284;5.758;2022-09-09T11:21:57;16.50;99.90
43858;DHT22;29507;51.284;5.758;2022-09-09T11:24:45;16.40;99.90
43858;DHT22;29507;51.284;5.758;2022-09-09T11:27:18;16.40;99.90
43858;DHT22;29507;51.284;5.758;2022-09-09T11:32:45;16.20;99.90
43858;DHT22;29507;51.284;5.758;2022-09-09T11:35:45;16.00;99.90
43858;DHT22;29507;51.284;5.758;2022-09-09T11:40:55;16.20;99.90
43858;DHT22;29507;51.284;5.758;2022-09-09T11:43:25;17.10;99.90
43858;DHT22;29507;51.284;5.758;2022-09-09T11:45:58;18.20;99.90
43858;DHT22;29507;51.284;5.758;2022-09-09T11:48:32;19.50;99.90
43858;DHT22;29507;51.284;5.758;2022-09-09T11:51:05;20.50;99.90
43858;DHT22;29507;51.284;5.758;2022-09-09T11:53:33;20.40;99.90
43858;DHT22;29507;51.284;5.758;2022-09-09T11:56:12;19.70;99.90
43858;DHT22;29507;51.284;5.758;2022-09-09T12:04:27;18.70;99.90
43858;DHT22;29507;51.284;5.758;2022-09-09T12:07:01;18.40;99.90
43858;DHT22;29507;51.284;5.758;2022-09-09T12:12:05;18.20;99.90
43858;DHT22;29507;51.284;5.758;2022-09-09T12:14:55;18.20;99.90
43858;DHT22;29507;51.284;5.758;2022-09-09T12:17:24;18.20;99.90
43858;DHT22;29507;51.284;5.758;2022-09-09T12:23:14;18.60;99.90
43858;DHT22;29507;51.284;5.758;2022-09-09T12:26:19;19.20;99.90
43858;DHT22;29507;51.284;5.758;2022-09-09T12:34:14;20.80;99.90
43858;DHT22;29507;51.284;5.758;2022-09-09T12:36:41;20.80;99.90
43858;DHT22;29507;51.284;5.758;2022-09-09T12:39:19;21.10;99.90
43858;DHT22;29507;51.284;5.758;2022-09-09T12:41:53;21.20;99.90
43858;DHT22;29507;51.284;5.758;2022-09-09T12:44:26;20.80;99.90
43858;DHT22;29507;51.284;5.758;2022-09-09T12:46:54;20.40;99.90
43858;DHT22;29507;51.284;5.758;2022-09-09T12:49:34;20.30;99.90
43858;DHT22;29507;51.284;5.758;2022-09-09T12:52:29;20.50;99.90
43858;DHT22;29507;51.284;5.758;2022-09-09T12:54:56;20.30;99.90
43858;DHT22;29507;51.284;5.758;2022-09-09T12:57:23;20.00;99.90
43858;DHT22;29507;51.284;5.758;2022-09-09T12:59:51;19.70;99.90
43858;DHT22;29507;51.284;5.758;2022-09-09T13:02:23;19.70;99.90
43858;DHT22;29507;51.284;5.758;2022-09-09T13:04:50;19.80;99.90
43858;DHT22;29507;51.284;5.758;2022-09-09T13:07:17;19.70;99.90
43858;DHT22;29507;51.284;5.758;2022-09-09T13:09:45;19.90;99.90
43858;DHT22;29507;51.284;5.758;2022-09-09T13:12:16;21.70;99.90
43858;DHT22;29507;51.284;5.758;2022-09-09T13:14:46;22.90;99.90
43858;DHT22;29507;51.284;5.758;2022-09-09T13:17:20;23.80;99.90
43858;DHT22;29507;51.284;5.758;2022-09-09T13:19:46;23.90;97.70
43858;DHT22;29507;51.284;5.758;2022-09-09T13:22:26;24.60;94.60
43858;DHT22;29507;51.284;5.758;2022-09-09T13:25:05;25.00;92.40
43858;DHT22;29507;51.284;5.758;2022-09-09T13:27:36;25.60;90.00
43858;DHT22;29507;51.284;5.758;2022-09-09T13:35:27;23.60;93.10
43858;DHT22;29507;51.284;5.758;2022-09-09T13:37:53;23.60;92.30
43858;DHT22;29507;51.284;5.758;2022-09-09T13:40:23;23.10;95.50
43858;DHT22;29507;51.284;5.758;2022-09-09T13:42:52;24.20;94.50
43858;DHT22;29507;51.284;5.758;2022-09-09T13:45:21;24.40;92.00
43858;DHT22;29507;51.284;5.758;2022-09-09T13:47:47;24.70;92.60
43858;DHT22;29507;51.284;5.758;2022-09-09T13:50:27;25.00;86.90
43858;DHT22;29507;51.284;5.758;2022-09-09T13:52:55;23.40;91.20
43858;DHT22;29507;51.284;5.758;2022-09-09T13:55:23;22.10;99.70
43858;DHT22;29507;51.284;5.758;2022-09-09T13:57:53;21.30;99.90
43858;DHT22;29507;51.284;5.758;2022-09-09T14:00:19;20.20;99.90
43858;DHT22;29507;51.284;5.758;2022-09-09T14:02:46;19.50;99.90
43858;DHT22;29507;51.284;5.758;2022-09-09T14:05:12;19.60;99.90
43858;DHT22;29507;51.284;5.758;2022-09-09T14:07:39;20.80;99.90
43858;DHT22;29507;51.284;5.758;2022-09-09T14:10:06;21.70;99.90
43858;DHT22;29507;51.284;5.758;2022-09-09T14:12:32;22.10;99.90
43858;DHT22;29507;51.284;5.758;2022-09-09T14:14:57;22.40;99.90
43858;DHT22;29507;51.284;5.758;2022-09-09T14:17:25;22.70;99.90
43858;DHT22;29507;51.284;5.758;2022-09-09T14:19:54;21.80;99.90
43858;DHT22;29507;51.284;5.758;2022-09-09T14:22:21;21.30;99.90
43858;DHT22;29507;51.284;5.758;2022-09-09T14:24:47;21.10;99.90
43858;DHT22;29507;51.284;5.758;2022-09-09T14:27:13;20.70;99.90
43858;DHT22;29507;51.284;5.758;2022-09-09T14:29:38;20.40;99.90
43858;DHT22;29507;51.284;5.758;2022-09-09T14:32:04;20.20;99.90
43858;DHT22;29507;51.284;5.758;2022-09-09T14:34:29;20.30;99.90
43858;DHT22;29507;51.284;5.758;2022-09-09T14:36:58;20.50;99.90
43858;DHT22;29507;51.284;5.758;2022-09-09T14:39:23;21.30;99.90
43858;DHT22;29507;51.284;5.758;2022-09-09T14:41:49;22.60;99.90
43858;DHT22;29507;51.284;5.758;2022-09-09T14:44:14;22.60;99.90
43858;DHT22;29507;51.284;5.758;2022-09-09T14:46:41;22.40;96.50
43858;DHT22;29507;51.284;5.758;2022-09-09T14:49:07;22.20;99.00
43858;DHT22;29507;51.284;5.758;2022-09-09T14:51:33;21.60;99.90
43858;DHT22;29507;51.284;5.758;2022-09-09T14:53:59;21.30;99.90
43858;DHT22;29507;51.284;5.758;2022-09-09T14:56:31;20.90;99.90
43858;DHT22;29507;51.284;5.758;2022-09-09T14:58:58;20.80;99.90
43858;DHT22;29507;51.284;5.758;2022-09-09T15:01:26;20.90;99.90
43858;DHT22;29507;51.284;5.758;2022-09-09T15:03:56;21.00;99.90
43858;DHT22;29507;51.284;5.758;2022-09-09T15:06:24;21.20;99.90
43858;DHT22;29507;51.284;5.758;2022-09-09T15:08:51;22.20;99.90
43858;DHT22;29507;51.284;5.758;2022-09-09T15:11:18;22.60;98.40
43858;DHT22;29507;51.284;5.758;2022-09-09T15:13:44;22.50;98.70
43858;DHT22;29507;51.284;5.758;2022-09-09T15:16:17;22.00;97.10
43858;DHT22;29507;51.284;5.758;2022-09-09T15:18:44;21.90;98.40
43858;DHT22;29507;51.284;5.758;2022-09-09T15:21:16;22.30;99.70
43858;DHT22;29507;51.284;5.758;2022-09-09T15:23:43;22.40;95.30
43858;DHT22;29507;51.284;5.758;2022-09-09T15:26:10;22.30;93.10
43858;DHT22;29507;51.284;5.758;2022-09-09T15:28:37;21.90;93.80
43858;DHT22;29507;51.284;5.758;2022-09-09T15:31:11;21.60;95.10
43858;DHT22;29507;51.284;5.758;2022-09-09T15:33:39;21.20;97.50
43858;DHT22;29507;51.284;5.758;2022-09-09T15:36:23;20.90;99.90
43858;DHT22;29507;51.284;5.758;2022-09-09T15:38:50;20.50;99.90
43858;DHT22;29507;51.284;5.758;2022-09-09T15:41:17;20.60;99.90
43858;DHT22;29507;51.284;5.758;2022-09-09T15:43:44;20.70;99.90
43858;DHT22;29507;51.284;5.758;2022-09-09T15:46:41;20.90;99.90
43858;DHT22;29507;51.284;5.758;2022-09-09T15:49:52;21.10;99.90
43858;DHT22;29507;51.284;5.758;2022-09-09T15:52:27;20.90;99.90
43858;DHT22;29507;51.284;5.758;2022-09-09T15:57:48;20.50;99.90
43858;DHT22;29507;51.284;5.758;2022-09-09T16:00:40;20.20;99.90
43858;DHT22;29507;51.284;5.758;2022-09-09T16:03:10;20.00;99.90
43858;DHT22;29507;51.284;5.758;2022-09-09T16:05:56;19.90;99.90
43858;DHT22;29507;51.284;5.758;2022-09-09T16:08:56;19.80;99.90
43858;DHT22;29507;51.284;5.758;2022-09-09T16:11:34;19.80;99.90
43858;DHT22;29507;51.284;5.758;2022-09-09T16:14:10;19.80;99.90
43858;DHT22;29507;51.284;5.758;2022-09-09T16:16:58;20.00;99.90
43858;DHT22;29507;51.284;5.758;2022-09-09T16:19:33;20.20;99.90
43858;DHT22;29507;51.284;5.758;2022-09-09T16:22:00;20.20;99.90
43858;DHT22;29507;51.284;5.758;2022-09-09T16:24:26;20.20;99.90
43858;DHT22;29507;51.284;5.758;2022-09-09T16:26:53;20.20;99.90
43858;DHT22;29507;51.284;5.758;2022-09-09T16:29:20;20.10;99.90
43858;DHT22;29507;51.284;5.758;2022-09-09T16:31:48;19.90;99.90
43858;DHT22;29507;51.284;5.758;2022-09-09T16:34:14;19.80;99.90
43858;DHT22;29507;51.284;5.758;2022-09-09T16:36:42;19.70;99.90
43858;DHT22;29507;51.284;5.758;2022-09-09T16:39:16;19.60;99.90
43858;DHT22;29507;51.284;5.758;2022-09-09T16:41:43;19.50;99.90
43858;DHT22;29507;51.284;5.758;2022-09-09T16:44:11;19.50;99.90
43858;DHT22;29507;51.284;5.758;2022-09-09T16:46:39;19.40;99.90
43858;DHT22;29507;51.284;5.758;2022-09-09T16:49:08;19.30;99.90
43858;DHT22;29507;51.284;5.758;2022-09-09T16:51:39;19.20;99.90
43858;DHT22;29507;51.284;5.758;2022-09-09T16:54:07;19.10;99.90
43858;DHT22;29507;51.284;5.758;2022-09-09T16:56:35;19.00;99.90
43858;DHT22;29507;51.284;5.758;2022-09-09T16:59:11;19.00;99.90
43858;DHT22;29507;51.284;5.758;2022-09-09T17:01:39;19.00;99.90
43858;DHT22;29507;51.284;5.758;2022-09-09T17:04:14;18.90;99.90
43858;DHT22;29507;51.284;5.758;2022-09-09T17:06:55;18.80;99.90
43858;DHT22;29507;51.284;5.758;2022-09-09T17:09:53;18.80;99.90
43858;DHT22;29507;51.284;5.758;2022-09-09T17:12:20;18.70;99.90
43858;DHT22;29507;51.284;5.758;2022-09-09T17:14:50;18.80;99.90
43858;DHT22;29507;51.284;5.758;2022-09-09T17:17:25;18.40;99.90
43858;DHT22;29507;51.284;5.758;2022-09-09T17:19:52;17.50;99.90
43858;DHT22;29507;51.284;5.758;2022-09-09T17:22:24;16.60;99.90
43858;DHT22;29507;51.284;5.758;2022-09-09T17:24:52;16.00;99.90
43858;DHT22;29507;51.284;5.758;2022-09-09T17:27:39;15.60;99.90
43858;DHT22;29507;51.284;5.758;2022-09-09T17:30:06;15.30;99.90
43858;DHT22;29507;51.284;5.758;2022-09-09T17:32:35;15.20;99.90
43858;DHT22;29507;51.284;5.758;2022-09-09T17:35:02;15.10;99.90
43858;DHT22;29507;51.284;5.758;2022-09-09T17:37:27;15.00;99.90
43858;DHT22;29507;51.284;5.758;2022-09-09T17:39:53;14.80;99.90
43858;DHT22;29507;51.284;5.758;2022-09-09T17:42:19;14.70;99.90
43858;DHT22;29507;51.284;5.758;2022-09-09T17:44:44;14.70;99.90
43858;DHT22;29507;51.284;5.758;2022-09-09T17:47:10;14.70;99.90
43858;DHT22;29507;51.284;5.758;2022-09-09T17:49:35;14.80;99.90
43858;DHT22;29507;51.284;5.758;2022-09-09T17:52:01;14.80;99.90
43858;DHT22;29507;51.284;5.758;2022-09-09T17:54:27;14.80;99.90
43858;DHT22;29507;51.284;5.758;2022-09-09T17:56:52;14.80;99.90
43858;DHT22;29507;51.284;5.758;2022-09-09T17:59:38;14.80;99.90
43858;DHT22;29507;51.284;5.758;2022-09-09T18:02:10;14.80;99.90